Hauptseite
METAR-TAF:

METAR-TAF

Flughäfen :

Siegerlandflughafen

Siegen, Deutschland

Breite: 50-42-28N, Länge: 008-04-59E, Höhe: 602 m

Beobachtung

Neuester Wetterbericht von vor 8 Stunden und 43 Minuten, um 19:50 UTC
Wind 15 kt aus Ost
Temperatur -1°C
Luftfeuchtigkeit 100%
Luftdruck 1007 hPa
Sichtweite: 0900 m
Gefrierender Nebel

METAR: EDGS 201950Z 10015KT 0900 R13/P2000N FZFG VV/// M01/M01 Q1007

Zeit: 05:33 (04:33 UTC)

Prognose

Neuester Wetterbericht von vor 11 Stunden und 33 Minuten, um 17:00 UTC
Gültige Prognose vom 20 um 18 UTC bis 21 um 03 UTC
Wind 15 kt aus Ost, Böen bis zu 25 kt
Sichtweite: 4000 m
Durchbrochene Bewölkung in der Höhe von 500 ft
feuchter Dunst
Zeitweise
vom 20 um 18 UTC bis 20 um 24 UTC
Sichtweite: 0300 m
Geschlossene Wolkendecke in der Höhe weniger als 100 ft
Gefrierender Nebel

TAF: EDGS 201700Z 2018/2103 10015G25KT 4000 BR BKN005 TEMPO 2018/2024 0300 FZFG OVC000

Wetterbeobachtungen und Prognosen von mehr als 4000 Flughäfen (METAR und TAF Bericht).

Die verfügbaren Stationen werden durch gelbe und rote Markierungen auf der Karte dargestellt.

Führen Sie die Maus auf sie, um den Namen der Station zu sehen.

Darauf klicken, um die Beobachtung von Wetterbeobachtungen und Prognosen zu sehen.

Um die Karte zu ändern : klicken Sie auf den grünen Tasten mit einem schwarzen Kreuz Zum Vergrößern, auf den grünen Button mit einem Gedankenstrich zu verkleinern, oder auf die grünen Pfeile für benachbarte Karten.


METAR-TAF: